FCO weather

Leonardo da Vinci–Fiumicino Airport
Rome, Lazio, Italy

Public forecast

Using degrees Celsius for public forecast. Weather courtesy of forecast.io.

METAR (pilot weather report)

Retrieved 2018/04/25 04:20 UTC (8 minutes ago):

LIRF 250420Z 08004KT 9000 NSC 11/10 Q1018 NOSIG

TAF (pilot weather forecast)

Retrieved 2018/04/25 00:21 UTC (4 hours ago):

TAF COR LIRF 250113Z 2500/2606 VRB05KT 7000 FEW020 TEMPO 2502/2506 1500 BR BECMG 2508/2510 22012KT BECMG 2516/2518 VRB05KT